Time;durP1;ratioP1;P1;durP2;ratioP2;P2;SDS_P1;SDS_P2;PMS_P1;PMS_P2;Temp;Humidity;BMP_temperature;BMP_pressure;BME280_temperature;BME280_humidity;BME280_pressure;Samples;Min_cycle;Max_cycle;Signal;HPM_P1;HPM_P2
2023/05/24 00:01:36;;;;;;;;;;;;;;;;;;6095503;23;20364;-79
2023/05/24 00:04:07;;;;;;;;;;;;;;;;;;6096990;23;19921;-78
2023/05/24 00:06:36;;;;;;;;;;;;;;;;;;6073768;23;19925;-78
2023/05/24 00:09:04;;;;;;;;;;;;;;;;;;6093876;23;19921;-78
2023/05/24 00:11:31;;;;;;;;;;;;;;;;;;6095928;23;19920;-78
2023/05/24 00:14:03;;;;;;;;;;;;;;;;;;6072010;23;19920;-78
2023/05/24 00:16:34;;;;;;;;;;;;;;;;;;6094828;23;19921;-78
2023/05/24 00:19:01;;;;;;;;;;;;;;;;;;6071675;23;19936;-78
2023/05/24 00:21:34;;;;;;;;;;;;;;;;;;6119632;23;20346;-78
2023/05/24 00:24:01;;;;;;;;;;;;;;;;;;6094986;23;19929;-78
2023/05/24 00:26:28;;;;;;;;;;;;;;;;;;6072847;23;19921;-78
2023/05/24 00:28:58;;;;;;;;;;;;;;;;;;6095091;23;19921;-78
2023/05/24 00:31:28;;;;;;;;;;;;;;;;;;6095868;23;19921;-79
2023/05/24 00:33:55;;;;;;;;;;;;;;;;;;6122150;23;19921;-79
2023/05/24 00:36:24;;;;;;;;;;;;;;;;;;6096527;23;20529;-79
2023/05/24 00:38:53;;;;;;;;;;;;;;;;;;6094008;23;19925;-78
2023/05/24 00:41:20;;;;;;;;;;;;;;;;;;6071079;23;20354;-79
2023/05/24 00:43:50;;;;;;;;;;;;;;;;;;6096858;23;19925;-78
2023/05/24 00:46:18;;;;;;;;;;;;;;;;;;6096196;23;19928;-78
2023/05/24 00:48:48;;;;;;;;;;;;;;;;;;6071661;23;19925;-78
2023/05/24 00:51:17;;;;;;;;;;;;;;;;;;6093854;23;19925;-78
2023/05/24 00:53:46;;;;;;;;;;;;;;;;;;6094984;23;19925;-78
2023/05/24 00:56:14;;;;;;;;;;;;;;;;;;6071434;23;19925;-78
2023/05/24 00:58:42;;;;;;;;;;;;;;;;;;6072451;23;19936;-78
2023/05/24 01:01:14;;;;;;;;;;;;;;;;;;6094490;23;20323;-78
2023/05/24 01:03:46;;;;;;;;;;;;;;;;;;6093698;23;19925;-78
2023/05/24 01:06:16;;;;;;;;;;;;;;;;;;6093295;23;19921;-78
2023/05/24 01:08:46;;;;;;;;;;;;;;;;;;6095709;23;19925;-78
2023/05/24 01:11:18;;;;;;;;;;;;;;;;;;6095288;23;20269;-78
2023/05/24 01:13:46;;;;;;;;;;;;;;;;;;6072404;23;19936;-78
2023/05/24 01:16:16;;;;;;;;;;;;;;;;;;6070163;23;19928;-78
2023/05/24 01:18:44;;;;;;;;;;;;;;;;;;6121400;23;19928;-78
2023/05/24 01:21:16;;;;;;;;;;;;;;;;;;6094400;23;20002;-78
2023/05/24 01:23:47;;;;;;;;;;;;;;;;;;6070773;23;19921;-78
2023/05/24 01:26:25;;;;;;;;;;;;;;;;;;6131961;23;19925;-78
2023/05/24 01:28:53;;;;;;;;;;;;;;;;;;6071442;23;19928;-78
2023/05/24 01:31:22;;;;;;;;;;;;;;;;;;6096969;23;20356;-78
2023/05/24 01:33:49;;;;;;;;;;;;;;;;;;6093082;23;20366;-78
2023/05/24 01:36:19;;;;;;;;;;;;;;;;;;6095968;23;19936;-78
2023/05/24 01:38:46;;;;;;;;;;;;;;;;;;6095078;23;20319;-78
2023/05/24 01:41:18;;;;;;;;;;;;;;;;;;6095860;23;19921;-78
2023/05/24 01:43:48;;;;;;;;;;;;;;;;;;6091895;23;20365;-78
2023/05/24 01:46:22;;;;;;;;;;;;;;;;;;6071194;23;19921;-78
2023/05/24 01:48:55;;;;;;;;;;;;;;;;;;6102249;23;20369;-78
2023/05/24 01:51:22;;;;;;;;;;;;;;;;;;6071456;23;19928;-78
2023/05/24 01:53:49;;;;;;;;;;;;;;;;;;6095066;23;19921;-78
2023/05/24 01:56:16;;;;;;;;;;;;;;;;;;6098772;23;20346;-78
2023/05/24 01:58:44;;;;;;;;;;;;;;;;;;6096602;23;19925;-78
2023/05/24 02:01:11;;;;;;;;;;;;;;;;;;6072290;23;19924;-78
2023/05/24 02:03:41;;;;;;;;;;;;;;;;;;6098653;23;19921;-78
2023/05/24 02:06:09;;;;;;;;;;;;;;;;;;6122211;23;19921;-78
2023/05/24 02:08:36;;;;;;;;;;;;;;;;;;6095534;23;19928;-78
2023/05/24 02:11:03;;;;;;;;;;;;;;;;;;6098101;23;19921;-78
2023/05/24 02:13:30;;;;;;;;;;;;;;;;;;6072128;23;20376;-78
2023/05/24 02:16:00;;;;;;;;;;;;;;;;;;6072548;23;19921;-78
2023/05/24 02:18:33;;;;;;;;;;;;;;;;;;6072777;23;19921;-78
2023/05/24 02:21:02;;;;;;;;;;;;;;;;;;6131988;23;19927;-78
2023/05/24 02:23:29;;;;;;;;;;;;;;;;;;6096897;23;19928;-78
2023/05/24 02:26:01;;;;;;;;;;;;;;;;;;6122237;23;19936;-78
2023/05/24 02:28:30;;;;;;;;;;;;;;;;;;6095001;23;19932;-78
2023/05/24 02:30:58;;;;;;;;;;;;;;;;;;6119601;23;19924;-78
2023/05/24 02:33:25;;;;;;;;;;;;;;;;;;6097566;23;20330;-78
2023/05/24 02:35:52;;;;;;;;;;;;;;;;;;6120886;23;20274;-78
2023/05/24 02:38:22;;;;;;;;;;;;;;;;;;6097186;23;19921;-78
2023/05/24 02:40:50;;;;;;;;;;;;;;;;;;6072188;23;19921;-78
2023/05/24 02:43:17;;;;;;;;;;;;;;;;;;6122423;23;19921;-78
2023/05/24 02:45:44;;;;;;;;;;;;;;;;;;6070206;23;19932;-78
2023/05/24 02:48:15;;;;;;;;;;;;;;;;;;6121516;23;20231;-78
2023/05/24 02:50:43;;;;;;;;;;;;;;;;;;6073720;23;19925;-78
2023/05/24 02:53:12;;;;;;;;;;;;;;;;;;6094399;23;20384;-78
2023/05/24 02:55:45;;;;;;;;;;;;;;;;;;6095873;23;19925;-78
2023/05/24 02:58:18;;;;;;;;;;;;;;;;;;6104080;23;20361;-78
2023/05/24 03:00:48;;;;;;;;;;;;;;;;;;6072021;23;19925;-78
2023/05/24 03:03:15;;;;;;;;;;;;;;;;;;6096602;23;20360;-78
2023/05/24 03:05:42;;;;;;;;;;;;;;;;;;6095118;23;19921;-78
2023/05/24 03:08:11;;;;;;;;;;;;;;;;;;6120538;23;20330;-78
2023/05/24 03:10:43;;;;;;;;;;;;;;;;;;6097961;23;19925;-78
2023/05/24 03:13:10;;;;;;;;;;;;;;;;;;6071862;23;19941;-78
2023/05/24 03:15:38;;;;;;;;;;;;;;;;;;6073730;23;19928;-78
2023/05/24 03:18:05;;;;;;;;;;;;;;;;;;6071126;23;19928;-78
2023/05/24 03:20:35;;;;;;;;;;;;;;;;;;6095410;23;19925;-78
2023/05/24 03:23:02;;;;;;;;;;;;;;;;;;6073801;23;19923;-78
2023/05/24 03:25:32;;;;;;;;;;;;;;;;;;6096967;23;19927;-78
2023/05/24 03:28:05;;;;;;;;;;;;;;;;;;6073569;23;19929;-78
2023/05/24 03:30:38;;;;;;;;;;;;;;;;;;6073917;23;19925;-78
2023/05/24 03:33:05;;;;;;;;;;;;;;;;;;6073486;23;19925;-78
2023/05/24 03:35:34;;;;;;;;;;;;;;;;;;6094865;23;20345;-78
2023/05/24 03:38:01;;;;;;;;;;;;;;;;;;6069564;23;19944;-78
2023/05/24 03:40:33;;;;;;;;;;;;;;;;;;6120950;23;19921;-78
2023/05/24 03:43:18;;;;;;;;;;;;;;;;;;6095050;23;19921;-78
2023/05/24 03:45:52;;;;;;;;;;;;;;;;;;6073583;23;20265;-78
2023/05/24 03:48:20;;;;;;;;;;;;;;;;;;6093898;23;20341;-78
2023/05/24 03:50:47;;;;;;;;;;;;;;;;;;6094866;23;20350;-78
2023/05/24 03:53:14;;;;;;;;;;;;;;;;;;6071073;23;19925;-78
2023/05/24 03:55:41;;;;;;;;;;;;;;;;;;6095929;23;20239;-78
2023/05/24 03:58:08;;;;;;;;;;;;;;;;;;6096843;23;19928;-78
2023/05/24 04:00:37;;;;;;;;;;;;;;;;;;6070615;23;19921;-78
2023/05/24 04:03:07;;;;;;;;;;;;;;;;;;6071712;23;20353;-78
2023/05/24 04:05:34;;;;;;;;;;;;;;;;;;6094249;23;20369;-78
2023/05/24 04:08:01;;;;;;;;;;;;;;;;;;6095036;23;19931;-78
2023/05/24 04:10:31;;;;;;;;;;;;;;;;;;6070853;23;19921;-78
2023/05/24 04:13:00;;;;;;;;;;;;;;;;;;6095823;23;19932;-78
2023/05/24 04:15:27;;;;;;;;;;;;;;;;;;6069738;23;19931;-78
2023/05/24 04:17:56;;;;;;;;;;;;;;;;;;6093366;23;19929;-78
2023/05/24 04:20:26;;;;;;;;;;;;;;;;;;6093690;23;20317;-78
2023/05/24 04:22:58;;;;;;;;;;;;;;;;;;6072265;23;19921;-78
2023/05/24 04:25:28;;;;;;;;;;;;;;;;;;6071724;23;19921;-78
2023/05/24 04:27:55;;;;;;;;;;;;;;;;;;6129471;23;19920;-78
2023/05/24 04:30:28;;;;;;;;;;;;;;;;;;6071647;23;19921;-78
2023/05/24 04:32:59;;;;;;;;;;;;;;;;;;6094839;23;19932;-78
2023/05/24 04:35:29;;;;;;;;;;;;;;;;;;6095356;23;19921;-78
2023/05/24 04:37:58;;;;;;;;;;;;;;;;;;6107845;23;19925;-78
2023/05/24 04:40:26;;;;;;;;;;;;;;;;;;6095312;23;19921;-78
2023/05/24 04:42:53;;;;;;;;;;;;;;;;;;6071028;23;19928;-78
2023/05/24 04:45:20;;;;;;;;;;;;;;;;;;6119499;23;19935;-78
2023/05/24 04:47:49;;;;;;;;;;;;;;;;;;6091805;23;20270;-78
2023/05/24 04:50:18;;;;;;;;;;;;;;;;;;6117150;23;19925;-78
2023/05/24 04:52:45;;;;;;;;;;;;;;;;;;6093823;23;19932;-78
2023/05/24 04:55:15;;;;;;;;;;;;;;;;;;6073615;23;20349;-78
2023/05/24 04:57:42;;;;;;;;;;;;;;;;;;6094571;23;19928;-78
2023/05/24 05:00:09;;;;;;;;;;;;;;;;;;6072816;23;19921;-78
2023/05/24 05:02:38;;;;;;;;;;;;;;;;;;6123001;23;20250;-78
2023/05/24 05:05:05;;;;;;;;;;;;;;;;;;6062177;23;20231;-78
2023/05/24 05:07:37;;;;;;;;;;;;;;;;;;6073796;23;20134;-78
2023/05/24 05:10:09;;;;;;;;;;;;;;;;;;6101114;23;19921;-78
2023/05/24 05:12:38;;;;;;;;;;;;;;;;;;6096910;23;19921;-78
2023/05/24 05:15:06;;;;;;;;;;;;;;;;;;6061823;23;19921;-78
2023/05/24 05:17:38;;;;;;;;;;;;;;;;;;6103575;23;19920;-78
2023/05/24 05:20:06;;;;;;;;;;;;;;;;;;6152635;23;20246;-78
2023/05/24 05:22:33;;;;;;;;;;;;;;;;;;6102614;23;19921;-78
2023/05/24 05:25:04;;;;;;;;;;;;;;;;;;6152994;23;19971;-78
2023/05/24 05:27:31;;;;;;;;;;;;;;;;;;6125925;23;19920;-78
2023/05/24 05:29:58;;;;;;;;;;;;;;;;;;6130446;23;19920;-78
2023/05/24 05:32:25;;;;;;;;;;;;;;;;;;6128222;23;19924;-78
2023/05/24 05:34:52;;;;;;;;;;;;;;;;;;6127332;23;19924;-78
2023/05/24 05:37:19;;;;;;;;;;;;;;;;;;6125738;23;19943;-78
2023/05/24 05:39:48;;;;;;;;;;;;;;;;;;6104420;23;19924;-78
2023/05/24 05:42:16;;;;;;;;;;;;;;;;;;6162657;23;19921;-78
2023/05/24 05:44:43;;;;;;;;;;;;;;;;;;6128070;23;19921;-78
2023/05/24 05:47:11;;;;;;;;;;;;;;;;;;6112726;23;19920;-80
2023/05/24 05:49:39;;;;;;;;;;;;;;;;;;6123420;23;19931;-80
2023/05/24 05:52:09;;;;;;;;;;;;;;;;;;6146584;23;19930;-80
2023/05/24 05:54:36;;;;;;;;;;;;;;;;;;6147051;23;19925;-80
2023/05/24 05:57:07;;;;;;;;;;;;;;;;;;6144343;23;19943;-79
2023/05/24 05:59:35;;;;;;;;;;;;;;;;;;6145046;23;19921;-79
2023/05/24 06:02:02;;;;;;;;;;;;;;;;;;6172056;23;19931;-79
2023/05/24 06:04:29;;;;;;;;;;;;;;;;;;6122811;23;19927;-80
2023/05/24 06:06:56;;;;;;;;;;;;;;;;;;6148447;23;19947;-80
2023/05/24 06:09:23;;;;;;;;;;;;;;;;;;6148954;23;19921;-80
2023/05/24 06:11:52;;;;;;;;;;;;;;;;;;6123097;23;19931;-80
2023/05/24 06:14:23;;;;;;;;;;;;;;;;;;6135600;23;20342;-79
2023/05/24 06:16:55;;;;;;;;;;;;;;;;;;6129102;23;19921;-78
2023/05/24 06:19:26;;;;;;;;;;;;;;;;;;6105596;23;19921;-78
2023/05/24 06:21:56;;;;;;;;;;;;;;;;;;6128027;23;19931;-78
2023/05/24 06:24:27;;;;;;;;;;;;;;;;;;6128753;23;19975;-78
2023/05/24 06:26:54;;;;;;;;;;;;;;;;;;6128180;23;19927;-78
2023/05/24 06:29:21;;;;;;;;;;;;;;;;;;6128934;23;19928;-79
2023/05/24 06:31:50;;;;;;;;;;;;;;;;;;6104233;23;19920;-79
2023/05/24 06:34:21;;;;;;;;;;;;;;;;;;6104675;23;19944;-79
2023/05/24 06:36:51;;;;;;;;;;;;;;;;;;6153415;23;19932;-79
2023/05/24 06:39:18;;;;;;;;;;;;;;;;;;6104467;23;20257;-79
2023/05/24 06:41:46;;;;;;;;;;;;;;;;;;6128572;23;19921;-78
2023/05/24 06:44:13;;;;;;;;;;;;;;;;;;6104484;23;19950;-78
2023/05/24 06:46:41;;;;;;;;;;;;;;;;;;6103794;23;19940;-78
2023/05/24 06:49:08;;;;;;;;;;;;;;;;;;6128011;23;20261;-78
2023/05/24 06:51:37;;;;;;;;;;;;;;;;;;6128527;23;19925;-78
2023/05/24 06:54:04;;;;;;;;;;;;;;;;;;6128815;23;19928;-78
2023/05/24 06:56:31;;;;;;;;;;;;;;;;;;6128775;23;19920;-78
2023/05/24 06:59:01;;;;;;;;;;;;;;;;;;6104036;23;19920;-78
2023/05/24 07:01:33;;;;;;;;;;;;;;;;;;6128642;23;19921;-83
2023/05/24 07:04:00;;;;;;;;;;;;;;;;;;6183530;23;19921;-80
2023/05/24 07:06:27;;;;;;;;;;;;;;;;;;6182740;23;19925;-81
2023/05/24 07:08:55;;;;;;;;;;;;;;;;;;6123419;23;19972;-81
2023/05/24 07:11:22;;;;;;;;;;;;;;;;;;6147090;23;19943;-80
2023/05/24 07:13:49;;;;;;;;;;;;;;;;;;6171964;23;19921;-81
2023/05/24 07:16:19;;;;;;;;;;;;;;;;;;6147453;23;19927;-81
2023/05/24 07:18:45;;;;;;;;;;;;;;;;;;6147701;23;19921;-81
2023/05/24 07:21:15;;;;;;;;;;;;;;;;;;6183997;23;19920;-80
2023/05/24 07:23:42;;;;;;;;;;;;;;;;;;6122568;23;19920;-81
2023/05/24 07:26:13;;;;;;;;;;;;;;;;;;6172155;23;19920;-81
2023/05/24 07:28:43;;;;;;;;;;;;;;;;;;6148076;23;19921;-81
2023/05/24 07:31:10;;;;;;;;;;;;;;;;;;6147612;23;19921;-81
2023/05/24 07:33:40;;;;;;;;;;;;;;;;;;6147299;23;19924;-81
2023/05/24 07:36:07;;;;;;;;;;;;;;;;;;6171180;23;19924;-81
2023/05/24 07:38:34;;;;;;;;;;;;;;;;;;6105360;23;19920;-79
2023/05/24 07:41:03;;;;;;;;;;;;;;;;;;6128640;23;19925;-79
2023/05/24 07:43:37;;;;;;;;;;;;;;;;;;6165011;23;19920;-79
2023/05/24 07:46:06;;;;;;;;;;;;;;;;;;6105775;23;20253;-79
2023/05/24 07:48:33;;;;;;;;;;;;;;;;;;6128829;23;20257;-79
2023/05/24 07:51:00;;;;;;;;;;;;;;;;;;6130961;23;19921;-79
2023/05/24 07:53:30;;;;;;;;;;;;;;;;;;6130881;23;19928;-79
2023/05/24 07:55:57;;;;;;;;;;;;;;;;;;6103842;23;19920;-79
2023/05/24 07:58:26;;;;;;;;;;;;;;;;;;6155120;23;19921;-79
2023/05/24 08:00:55;;;;;;;;;;;;;;;;;;6171288;23;19921;-80
2023/05/24 08:03:24;;;;;;;;;;;;;;;;;;6145892;23;19920;-81
2023/05/24 08:05:54;;;;;;;;;;;;;;;;;;6147225;23;19927;-81
2023/05/24 08:08:21;;;;;;;;;;;;;;;;;;6170825;23;19924;-82
2023/05/24 08:10:48;;;;;;;;;;;;;;;;;;6171909;23;19927;-81
2023/05/24 08:13:18;;;;;;;;;;;;;;;;;;6173333;23;19931;-81
2023/05/24 08:15:48;;;;;;;;;;;;;;;;;;6146271;23;19927;-81
2023/05/24 08:18:16;;;;;;;;;;;;;;;;;;6122880;23;20268;-81
2023/05/24 08:20:48;;;;;;;;;;;;;;;;;;6122784;23;20264;-81
2023/05/24 08:23:18;;;;;;;;;;;;;;;;;;6146210;23;19925;-81
2023/05/24 08:25:45;;;;;;;;;;;;;;;;;;6172846;23;19920;-81
2023/05/24 08:28:15;;;;;;;;;;;;;;;;;;6171272;23;19920;-81
2023/05/24 08:30:47;;;;;;;;;;;;;;;;;;6147477;23;19921;-81
2023/05/24 08:33:49;;;;;;;;;;;;;;;;;;6135930;23;20277;-80
2023/05/24 08:36:21;;;;;;;;;;;;;;;;;;6107353;23;19921;-80
2023/05/24 08:38:50;;;;;;;;;;;;;;;;;;6131148;23;19931;-80
2023/05/24 08:41:17;;;;;;;;;;;;;;;;;;6130973;23;19924;-80
2023/05/24 08:43:47;;;;;;;;;;;;;;;;;;6169118;23;19921;-80
2023/05/24 08:46:17;;;;;;;;;;;;;;;;;;6171666;23;19921;-81
2023/05/24 08:48:46;;;;;;;;;;;;;;;;;;6121325;23;19921;-81
2023/05/24 08:51:13;;;;;;;;;;;;;;;;;;6146034;23;20313;-81
2023/05/24 08:53:47;;;;;;;;;;;;;;;;;;6123497;23;19921;-81
2023/05/24 08:56:16;;;;;;;;;;;;;;;;;;6145506;23;19921;-81
2023/05/24 08:58:44;;;;;;;;;;;;;;;;;;6122489;23;19921;-82
2023/05/24 09:01:13;;;;;;;;;;;;;;;;;;6122286;23;19943;-81
2023/05/24 09:03:41;;;;;;;;;;;;;;;;;;6171873;23;19921;-81
2023/05/24 09:06:09;;;;;;;;;;;;;;;;;;6122690;23;19947;-81
2023/05/24 09:08:37;;;;;;;;;;;;;;;;;;6167450;23;19921;-80
2023/05/24 09:11:10;;;;;;;;;;;;;;;;;;6157368;23;20257;-79
2023/05/24 09:13:37;;;;;;;;;;;;;;;;;;6156067;23;19925;-79
2023/05/24 09:16:06;;;;;;;;;;;;;;;;;;6156166;23;20342;-79
2023/05/24 09:18:33;;;;;;;;;;;;;;;;;;6157160;23;19925;-80
2023/05/24 09:21:28;;;;;;;;;;;;;;;;;;6157654;23;20253;-80
2023/05/24 09:23:57;;;;;;;;;;;;;;;;;;6140869;23;19927;-79
2023/05/24 09:26:29;;;;;;;;;;;;;;;;;;6156955;23;19921;-80
2023/05/24 09:28:58;;;;;;;;;;;;;;;;;;6131366;23;19924;-79
2023/05/24 09:31:33;;;;;;;;;;;;;;;;;;6129641;23;19928;-79
2023/05/24 09:34:01;;;;;;;;;;;;;;;;;;6162213;23;19924;-80
2023/05/24 09:36:33;;;;;;;;;;;;;;;;;;6145590;23;19927;-81
2023/05/24 09:39:07;;;;;;;;;;;;;;;;;;6144971;23;19921;-81
2023/05/24 09:41:34;;;;;;;;;;;;;;;;;;6145735;23;19927;-80
2023/05/24 09:44:03;;;;;;;;;;;;;;;;;;6144646;23;19920;-81
2023/05/24 09:46:34;;;;;;;;;;;;;;;;;;6121717;23;19927;-81
2023/05/24 09:49:02;;;;;;;;;;;;;;;;;;6143197;23;19924;-81
2023/05/24 09:51:33;;;;;;;;;;;;;;;;;;6167804;23;19921;-80
2023/05/24 09:54:01;;;;;;;;;;;;;;;;;;6145202;23;19920;-81
2023/05/24 09:56:28;;;;;;;;;;;;;;;;;;6141615;23;19927;-81
2023/05/24 09:58:55;;;;;;;;;;;;;;;;;;6168645;23;19920;-81
2023/05/24 10:01:25;;;;;;;;;;;;;;;;;;6167352;23;19921;-81
2023/05/24 10:03:56;;;;;;;;;;;;;;;;;;6139636;23;19924;-80
2023/05/24 10:06:31;;;;;;;;;;;;;;;;;;6164935;23;19927;-84
2023/05/24 10:08:59;;;;;;;;;;;;;;;;;;6161673;23;19938;-81
2023/05/24 10:11:26;;;;;;;;;;;;;;;;;;6143842;23;19921;-80
2023/05/24 10:13:58;;;;;;;;;;;;;;;;;;6117817;23;19924;-80
2023/05/24 10:16:28;;;;;;;;;;;;;;;;;;6144217;23;19931;-80
2023/05/24 10:18:57;;;;;;;;;;;;;;;;;;6170900;23;19921;-81
2023/05/24 10:21:26;;;;;;;;;;;;;;;;;;6121056;23;19921;-81
2023/05/24 10:23:55;;;;;;;;;;;;;;;;;;6122830;23;19921;-81
2023/05/24 10:26:26;;;;;;;;;;;;;;;;;;6154617;23;19924;-81
2023/05/24 10:28:59;;;;;;;;;;;;;;;;;;6119278;23;19924;-81
2023/05/24 10:31:47;;;;;;;;;;;;;;;;;;6147975;23;19924;-80
2023/05/24 10:34:15;;;;;;;;;;;;;;;;;;6119949;23;19927;-81
2023/05/24 10:36:58;;;;;;;;;;;;;;;;;;6153873;23;19927;-81
2023/05/24 10:39:30;;;;;;;;;;;;;;;;;;6176418;23;19927;-81
2023/05/24 10:42:00;;;;;;;;;;;;;;;;;;6143479;23;20357;-81
2023/05/24 10:44:31;;;;;;;;;;;;;;;;;;6145873;23;19921;-81
2023/05/24 10:47:12;;;;;;;;;;;;;;;;;;6146252;23;19927;-80
2023/05/24 10:49:47;;;;;;;;;;;;;;;;;;6144239;23;19921;-80
2023/05/24 10:52:17;;;;;;;;;;;;;;;;;;6141383;23;19920;-80
2023/05/24 10:54:58;;;;;;;;;;;;;;;;;;6141603;23;19920;-81
2023/05/24 10:57:30;;;;;;;;;;;;;;;;;;6139451;23;19920;-81
2023/05/24 11:00:19;;;;;;;;;;;;;;;;;;6143308;23;19924;-81
2023/05/24 11:02:48;;;;;;;;;;;;;;;;;;6164532;23;19921;-81
2023/05/24 11:05:34;;;;;;;;;;;;;;;;;;6135558;23;19920;-81
2023/05/24 11:08:04;;;;;;;;;;;;;;;;;;6132608;23;19920;-81
2023/05/24 11:10:31;;;;;;;;;;;;;;;;;;6135746;23;19925;-81
2023/05/24 11:13:04;;;;;;;;;;;;;;;;;;6176990;23;19920;-81
2023/05/24 11:18:56;;;;;;;;;;;;;;;;;;6125457;23;19924;-81
2023/05/24 11:21:32;;;;;;;;;;;;;;;;;;6132535;23;19920;-79
2023/05/24 11:24:00;;;;;;;;;;;;;;;;;;6130707;23;19921;-79
2023/05/24 11:26:30;;;;;;;;;;;;;;;;;;6150567;23;19924;-80
2023/05/24 11:28:59;;;;;;;;;;;;;;;;;;6170850;23;19939;-81
2023/05/24 11:31:27;;;;;;;;;;;;;;;;;;6142696;23;19927;-81
2023/05/24 11:33:54;;;;;;;;;;;;;;;;;;6131051;23;19924;-80
2023/05/24 11:36:26;;;;;;;;;;;;;;;;;;6138803;23;19924;-80
2023/05/24 11:38:54;;;;;;;;;;;;;;;;;;6152854;23;19928;-80
2023/05/24 11:41:20;;;;;;;;;;;;;;;;;;6153661;23;19920;-80
2023/05/24 11:43:53;;;;;;;;;;;;;;;;;;6125633;23;20349;-79
2023/05/24 11:46:26;;;;;;;;;;;;;;;;;;6102846;23;19956;-79
2023/05/24 11:48:56;;;;;;;;;;;;;;;;;;6127917;23;19921;-79
2023/05/24 11:51:27;;;;;;;;;;;;;;;;;;6131136;23;19921;-81
2023/05/24 11:53:58;;;;;;;;;;;;;;;;;;6121149;23;19921;-81
2023/05/24 11:56:33;;;;;;;;;;;;;;;;;;6151896;23;19921;-81
2023/05/24 11:59:06;;;;;;;;;;;;;;;;;;6167452;23;19925;-81
2023/05/24 12:01:37;;;;;;;;;;;;;;;;;;6141679;23;19924;-81
2023/05/24 12:04:12;;;;;;;;;;;;;;;;;;6145592;23;19925;-81
2023/05/24 12:06:47;;;;;;;;;;;;;;;;;;6177419;23;19920;-80
2023/05/24 12:09:17;;;;;;;;;;;;;;;;;;6118259;23;19921;-80
2023/05/24 12:11:48;;;;;;;;;;;;;;;;;;6115513;23;19920;-81
2023/05/24 12:14:16;;;;;;;;;;;;;;;;;;6144058;23;19920;-81
2023/05/24 12:16:45;;;;;;;;;;;;;;;;;;6148111;23;19931;-81
2023/05/24 12:19:18;;;;;;;;;;;;;;;;;;6146791;23;19936;-81
2023/05/24 12:21:45;;;;;;;;;;;;;;;;;;6138116;23;19924;-81
2023/05/24 12:24:13;;;;;;;;;;;;;;;;;;6147402;23;19934;-81
2023/05/24 12:26:43;;;;;;;;;;;;;;;;;;6122599;23;19928;-81
2023/05/24 12:29:12;;;;;;;;;;;;;;;;;;6137375;23;19931;-81
2023/05/24 12:31:40;;;;;;;;;;;;;;;;;;6165925;23;19925;-81
2023/05/24 12:34:08;;;;;;;;;;;;;;;;;;6144806;23;19927;-81
2023/05/24 12:36:38;;;;;;;;;;;;;;;;;;6154417;23;19930;-81
2023/05/24 12:39:17;;;;;;;;;;;;;;;;;;6133499;23;20081;-80
2023/05/24 12:41:50;;;;;;;;;;;;;;;;;;6128545;23;20260;-80
2023/05/24 12:44:24;;;;;;;;;;;;;;;;;;6164314;23;19920;-80
2023/05/24 12:46:52;;;;;;;;;;;;;;;;;;6106593;23;19924;-81
2023/05/24 12:49:20;;;;;;;;;;;;;;;;;;6146735;23;19920;-81
2023/05/24 12:51:50;;;;;;;;;;;;;;;;;;6144045;23;20184;-80
2023/05/24 12:54:22;;;;;;;;;;;;;;;;;;6154692;23;19924;-81
2023/05/24 12:56:49;;;;;;;;;;;;;;;;;;6143805;23;19930;-81
2023/05/24 12:59:18;;;;;;;;;;;;;;;;;;6119100;23;19921;-81
2023/05/24 13:01:49;;;;;;;;;;;;;;;;;;6144511;23;19920;-81
2023/05/24 13:04:16;;;;;;;;;;;;;;;;;;6179383;23;19920;-81
2023/05/24 13:06:45;;;;;;;;;;;;;;;;;;6119079;23;19925;-81
2023/05/24 13:09:20;;;;;;;;;;;;;;;;;;6176714;23;19931;-81
2023/05/24 13:11:49;;;;;;;;;;;;;;;;;;6180005;23;19921;-81
2023/05/24 13:14:20;;;;;;;;;;;;;;;;;;6137453;23;19921;-80
2023/05/24 13:16:47;;;;;;;;;;;;;;;;;;6102841;23;19969;-80
2023/05/24 13:19:18;;;;;;;;;;;;;;;;;;6158897;23;19931;-80
2023/05/24 13:21:49;;;;;;;;;;;;;;;;;;6127256;23;20345;-80
2023/05/24 13:24:29;;;;;;;;;;;;;;;;;;6165941;23;19921;-80
2023/05/24 13:27:02;;;;;;;;;;;;;;;;;;6169393;23;19928;-81
2023/05/24 13:29:31;;;;;;;;;;;;;;;;;;6120628;23;19920;-81
2023/05/24 13:31:58;;;;;;;;;;;;;;;;;;6144858;23;19925;-81
2023/05/24 13:34:26;;;;;;;;;;;;;;;;;;6121958;23;20256;-81
2023/05/24 13:36:58;;;;;;;;;;;;;;;;;;6145211;23;19927;-80
2023/05/24 13:39:37;;;;;;;;;;;;;;;;;;6144870;23;19921;-81
2023/05/24 13:42:32;;;;;;;;;;;;;;;;;;6138479;23;19927;-81
2023/05/24 13:45:04;;;;;;;;;;;;;;;;;;6141519;23;19935;-81
2023/05/24 13:47:34;;;;;;;;;;;;;;;;;;6148574;23;19930;-81
2023/05/24 13:50:12;;;;;;;;;;;;;;;;;;6142518;23;20252;-81
2023/05/24 13:52:51;;;;;;;;;;;;;;;;;;6138472;23;20345;-81
2023/05/24 13:55:21;;;;;;;;;;;;;;;;;;6135339;23;19921;-80
2023/05/24 13:57:50;;;;;;;;;;;;;;;;;;6132926;23;19920;-81
2023/05/24 14:00:18;;;;;;;;;;;;;;;;;;6132192;23;19920;-81
2023/05/24 14:02:45;;;;;;;;;;;;;;;;;;6110366;23;19927;-80
2023/05/24 14:05:16;;;;;;;;;;;;;;;;;;6107768;23;20337;-79
2023/05/24 14:07:45;;;;;;;;;;;;;;;;;;6131702;23;19921;-79
2023/05/24 14:10:18;;;;;;;;;;;;;;;;;;6106171;23;19921;-79
2023/05/24 14:12:50;;;;;;;;;;;;;;;;;;6130015;23;20090;-79
2023/05/24 14:15:17;;;;;;;;;;;;;;;;;;6128381;23;19932;-79
2023/05/24 14:17:51;;;;;;;;;;;;;;;;;;6140076;23;19927;-79
2023/05/24 14:20:21;;;;;;;;;;;;;;;;;;6128498;23;19935;-78
2023/05/24 14:22:48;;;;;;;;;;;;;;;;;;6128295;23;19921;-78
2023/05/24 14:25:19;;;;;;;;;;;;;;;;;;6154814;23;19920;-78
2023/05/24 14:27:51;;;;;;;;;;;;;;;;;;6165425;23;19921;-78
2023/05/24 14:30:21;;;;;;;;;;;;;;;;;;6128818;23;19920;-79
2023/05/24 14:32:48;;;;;;;;;;;;;;;;;;6104454;23;19920;-79
2023/05/24 14:35:20;;;;;;;;;;;;;;;;;;6164338;23;20237;-79
2023/05/24 14:37:52;;;;;;;;;;;;;;;;;;6129826;23;19921;-78
2023/05/24 14:40:21;;;;;;;;;;;;;;;;;;6133264;23;19977;-79
2023/05/24 14:42:50;;;;;;;;;;;;;;;;;;6173079;23;19947;-80
2023/05/24 14:45:20;;;;;;;;;;;;;;;;;;6175255;23;19921;-80
2023/05/24 14:47:47;;;;;;;;;;;;;;;;;;6174460;23;19921;-80
2023/05/24 14:50:14;;;;;;;;;;;;;;;;;;6172735;23;19931;-80
2023/05/24 14:52:41;;;;;;;;;;;;;;;;;;6147347;23;20083;-80
2023/05/24 14:55:14;;;;;;;;;;;;;;;;;;6145827;23;19928;-80
2023/05/24 14:57:42;;;;;;;;;;;;;;;;;;6147535;23;19927;-80
2023/05/24 15:00:13;;;;;;;;;;;;;;;;;;6151633;23;19950;-80
2023/05/24 15:02:42;;;;;;;;;;;;;;;;;;6171715;23;19924;-80
2023/05/24 15:05:09;;;;;;;;;;;;;;;;;;6147484;23;19924;-80
2023/05/24 15:07:41;;;;;;;;;;;;;;;;;;6157552;23;19920;-80
2023/05/24 15:10:10;;;;;;;;;;;;;;;;;;6151503;23;19944;-79
2023/05/24 15:12:37;;;;;;;;;;;;;;;;;;6149356;23;19931;-79
2023/05/24 15:15:06;;;;;;;;;;;;;;;;;;6104756;23;20360;-79
2023/05/24 15:17:33;;;;;;;;;;;;;;;;;;6128552;23;19921;-79
2023/05/24 15:20:00;;;;;;;;;;;;;;;;;;6129356;23;19925;-78
2023/05/24 15:22:27;;;;;;;;;;;;;;;;;;6101257;23;20297;-79
2023/05/24 15:24:54;;;;;;;;;;;;;;;;;;6128734;23;19925;-79
2023/05/24 15:27:21;;;;;;;;;;;;;;;;;;6128656;23;19925;-79
2023/05/24 15:29:49;;;;;;;;;;;;;;;;;;6152897;23;19928;-79
2023/05/24 15:32:17;;;;;;;;;;;;;;;;;;6128189;23;19936;-79
2023/05/24 15:34:48;;;;;;;;;;;;;;;;;;6128053;23;19920;-79
2023/05/24 15:37:16;;;;;;;;;;;;;;;;;;6154020;23;20325;-81
2023/05/24 15:39:50;;;;;;;;;;;;;;;;;;6104291;23;20345;-79
2023/05/24 15:42:19;;;;;;;;;;;;;;;;;;6102358;23;20253;-79
2023/05/24 15:44:49;;;;;;;;;;;;;;;;;;6102455;23;20260;-79
2023/05/24 15:47:17;;;;;;;;;;;;;;;;;;6127861;23;19921;-79
2023/05/24 15:49:44;;;;;;;;;;;;;;;;;;6102981;23;19924;-79
2023/05/24 15:52:14;;;;;;;;;;;;;;;;;;6128154;23;19920;-79
2023/05/24 15:54:46;;;;;;;;;;;;;;;;;;6103922;23;19925;-78
2023/05/24 15:57:15;;;;;;;;;;;;;;;;;;6103488;23;19955;-78
2023/05/24 15:59:44;;;;;;;;;;;;;;;;;;6126681;23;19942;-79
2023/05/24 16:02:11;;;;;;;;;;;;;;;;;;6098897;23;19944;-78
2023/05/24 16:04:45;;;;;;;;;;;;;;;;;;6160028;23;19925;-78
2023/05/24 16:07:23;;;;;;;;;;;;;;;;;;6157506;23;19931;-79
2023/05/24 16:09:52;;;;;;;;;;;;;;;;;;6117437;23;19921;-79
2023/05/24 16:12:22;;;;;;;;;;;;;;;;;;6166465;23;19920;-79
2023/05/24 16:14:51;;;;;;;;;;;;;;;;;;6165568;23;19930;-80
2023/05/24 16:17:18;;;;;;;;;;;;;;;;;;6120153;23;19931;-80
2023/05/24 16:19:49;;;;;;;;;;;;;;;;;;6166447;23;19920;-80
2023/05/24 16:22:16;;;;;;;;;;;;;;;;;;6144408;23;19929;-79
2023/05/24 16:24:46;;;;;;;;;;;;;;;;;;6171217;23;19925;-80
2023/05/24 16:27:13;;;;;;;;;;;;;;;;;;6171846;23;19921;-80
2023/05/24 16:29:44;;;;;;;;;;;;;;;;;;6123052;23;19921;-80
2023/05/24 16:32:14;;;;;;;;;;;;;;;;;;6120504;23;19931;-80
2023/05/24 16:34:43;;;;;;;;;;;;;;;;;;6172927;23;19924;-80
2023/05/24 16:37:14;;;;;;;;;;;;;;;;;;6141759;23;19921;-78
2023/05/24 16:39:41;;;;;;;;;;;;;;;;;;6135532;23;19920;-79
2023/05/24 16:42:08;;;;;;;;;;;;;;;;;;6138505;23;19920;-79
2023/05/24 16:44:35;;;;;;;;;;;;;;;;;;6113837;23;19920;-79
2023/05/24 16:47:02;;;;;;;;;;;;;;;;;;6136933;23;20087;-79
2023/05/24 16:49:30;;;;;;;;;;;;;;;;;;6167210;23;19921;-80
2023/05/24 16:52:10;;;;;;;;;;;;;;;;;;6116928;23;19924;-80
2023/05/24 16:54:44;;;;;;;;;;;;;;;;;;6146156;23;19921;-80
2023/05/24 16:57:17;;;;;;;;;;;;;;;;;;6147039;23;19928;-80
2023/05/24 16:59:47;;;;;;;;;;;;;;;;;;6146360;23;19921;-80
2023/05/24 17:02:14;;;;;;;;;;;;;;;;;;6171097;23;19927;-80
2023/05/24 17:04:41;;;;;;;;;;;;;;;;;;6141269;23;20337;-79
2023/05/24 17:07:08;;;;;;;;;;;;;;;;;;6127655;23;19921;-78